YBC weather

Baie Comeau Airport
Baie-Comeau, Quebec, Canada

Public forecast

Using degrees Celsius for public forecast. Weather courtesy of forecast.io.

METAR (pilot weather report)

Retrieved 2019/03/21 03:00 UTC (52 minutes ago):

CYBC 210300Z AUTO 23003KT 9SM OVC050 00/M02 A3007 RMK SLP187

TAF (pilot weather forecast)

Retrieved 2019/03/21 02:00 UTC (2 hours ago):

TAF CYBC 210138Z 2102/2114 25008KT P6SM FEW080 TEMPO 2102/2103 5SM -SNRA BKN008 OVC020 FM210300 25012KT P6SM OVC025 TEMPO 2103/2105 2SM -SNRA BR BKN008 OVC030 FM210500 23010KT P6SM -SNRA OVC015 TEMPO 2105/2113 2SM -RASN BR OVC005 FM211300 21010G20KT P6SM -SNRA SCT005 BKN010 BKN060 PROB30 2113/2114 5SM -RASN BR OVC005 RMK FCST BASED ON AUTO OBS. NXT FCST BY 210800Z